Terminal Aerodrome Forecast
Issued by NWS Jacksonville, FL

Current Version | Previous Version | Text Only | Print | Product List | Glossary On
Versions: 1 2 3 4 5 6 7 8 9 10 11 12 13 14 15
000
FTUS42 KJAX 051121
TAFSSI
TAF
KSSI 051121Z 0512/0612 05008KT P6SM SCT100 BKN250
     FM051500 08016G24KT P6SM BKN040
     FM060100 05008KT P6SM SCT040 BKN250=

USA.gov is the U.S. government's official web portal to all federal, state and local government web resources and services.